Time;durP1;ratioP1;P1;durP2;ratioP2;P2;SDS_P1;SDS_P2;PMS_P1;PMS_P2;Temp;Humidity;BMP_temperature;BMP_pressure;BME280_temperature;BME280_humidity;BME280_pressure;Samples;Min_cycle;Max_cycle;Signal;HPM_P1;HPM_P2
2023/09/24 00:00:34;;;;;;;7.85;5.15;;;;;;;;;;4907979;29;20056;-87
2023/09/24 00:03:03;;;;;;;8.13;5.60;;;;;;;;;;4909386;29;20150;-87
2023/09/24 00:05:30;;;;;;;8.63;5.68;;;;;;;;;;4908304;29;20151;-86
2023/09/24 00:07:59;;;;;;;8.50;6.00;;;;;;;;;;4908705;29;20060;-86
2023/09/24 00:10:41;;;;;;;8.27;5.40;;;;;;;;;;4914670;29;20286;-88
2023/09/24 00:13:09;;;;;;;6.57;5.22;;;;;;;;;;4907506;29;20536;-87
2023/09/24 00:15:38;;;;;;;10.57;6.05;;;;;;;;;;4909332;29;20131;-85
2023/09/24 00:18:08;;;;;;;8.52;5.82;;;;;;;;;;4927192;29;20048;-85
2023/09/24 00:20:37;;;;;;;9.48;5.07;;;;;;;;;;4944703;29;20048;-86
2023/09/24 00:23:11;;;;;;;9.02;4.95;;;;;;;;;;4937889;29;20044;-86
2023/09/24 00:25:54;;;;;;;6.35;5.45;;;;;;;;;;4940037;29;20075;-86
2023/09/24 00:28:41;;;;;;;5.67;4.90;;;;;;;;;;4937623;29;20550;-86
2023/09/24 00:31:12;;;;;;;9.32;5.03;;;;;;;;;;4927755;29;20055;-86
2023/09/24 00:33:53;;;;;;;6.88;4.57;;;;;;;;;;4928224;29;20146;-86
2023/09/24 00:36:24;;;;;;;8.43;5.50;;;;;;;;;;4926711;29;20052;-85
2023/09/24 00:38:54;;;;;;;6.03;5.00;;;;;;;;;;4927298;29;20201;-86
2023/09/24 00:41:22;;;;;;;7.30;5.18;;;;;;;;;;4926500;29;20052;-86
2023/09/24 00:43:50;;;;;;;11.10;5.05;;;;;;;;;;4927418;29;20071;-85
2023/09/24 00:46:44;;;;;;;10.10;5.35;;;;;;;;;;4929671;29;20082;-85
2023/09/24 00:49:15;;;;;;;8.38;5.40;;;;;;;;;;4945491;29;20051;-86
2023/09/24 00:51:42;;;;;;;6.80;5.18;;;;;;;;;;4929809;29;20066;-86
2023/09/24 00:54:13;;;;;;;7.78;5.65;;;;;;;;;;4929652;29;20051;-85
2023/09/24 00:56:47;;;;;;;6.45;5.50;;;;;;;;;;4948460;29;20127;-86
2023/09/24 00:59:22;;;;;;;6.53;4.97;;;;;;;;;;4930162;29;20118;-85
2023/09/24 01:01:51;;;;;;;7.50;4.40;;;;;;;;;;4943807;29;20035;-85
2023/09/24 01:04:19;;;;;;;6.53;4.88;;;;;;;;;;4930360;29;20044;-85
2023/09/24 01:06:48;;;;;;;8.27;5.28;;;;;;;;;;4931671;29;20081;-86
2023/09/24 01:09:19;;;;;;;12.23;5.75;;;;;;;;;;4930428;29;20366;-86
2023/09/24 01:11:55;;;;;;;6.80;4.70;;;;;;;;;;4926187;29;20393;-85
2023/09/24 01:14:29;;;;;;;9.35;4.70;;;;;;;;;;4942016;29;20143;-85
2023/09/24 01:17:04;;;;;;;8.82;5.13;;;;;;;;;;4926731;29;20088;-86
2023/09/24 01:19:41;;;;;;;11.88;5.45;;;;;;;;;;4927982;29;20119;-86
2023/09/24 01:22:09;;;;;;;6.80;4.93;;;;;;;;;;4925783;29;20236;-86
2023/09/24 01:24:36;;;;;;;8.10;4.75;;;;;;;;;;4926790;29;20103;-86
2023/09/24 01:27:20;;;;;;;6.38;4.75;;;;;;;;;;4926371;29;20281;-86
2023/09/24 01:29:48;;;;;;;9.20;5.32;;;;;;;;;;4927609;29;20102;-86
2023/09/24 01:32:16;;;;;;;7.50;5.35;;;;;;;;;;4928456;29;20060;-86
2023/09/24 01:34:48;;;;;;;5.93;4.78;;;;;;;;;;4927354;29;20142;-86
2023/09/24 01:37:16;;;;;;;8.77;5.70;;;;;;;;;;4926872;29;20081;-86
2023/09/24 01:39:56;;;;;;;11.90;5.80;;;;;;;;;;4943556;29;20399;-86
2023/09/24 01:42:23;;;;;;;8.85;6.22;;;;;;;;;;4942373;29;20150;-86
2023/09/24 01:44:51;;;;;;;8.85;6.47;;;;;;;;;;4944715;29;20412;-86
2023/09/24 01:47:19;;;;;;;8.63;6.45;;;;;;;;;;4927547;29;20048;-86
2023/09/24 01:49:51;;;;;;;10.68;6.90;;;;;;;;;;4927370;29;20079;-86
2023/09/24 01:52:22;;;;;;;8.18;5.93;;;;;;;;;;4927610;29;20110;-87
2023/09/24 01:54:55;;;;;;;7.65;5.13;;;;;;;;;;4928351;29;20209;-86
2023/09/24 01:57:28;;;;;;;7.25;5.53;;;;;;;;;;4927886;29;20051;-85
2023/09/24 01:59:56;;;;;;;12.15;6.72;;;;;;;;;;4930063;29;20332;-85
2023/09/24 02:02:33;;;;;;;8.77;6.50;;;;;;;;;;4931647;29;20410;-86
2023/09/24 02:05:01;;;;;;;8.00;6.07;;;;;;;;;;4931824;29;20086;-86
2023/09/24 02:07:28;;;;;;;5.90;4.88;;;;;;;;;;4930763;29;20052;-87
2023/09/24 02:10:02;;;;;;;6.90;4.57;;;;;;;;;;4944377;29;20078;-86
2023/09/24 02:12:39;;;;;;;6.45;4.93;;;;;;;;;;4944996;29;20204;-86
2023/09/24 02:15:12;;;;;;;12.85;5.60;;;;;;;;;;4929817;29;20059;-86
2023/09/24 02:17:41;;;;;;;8.25;5.22;;;;;;;;;;4930760;29;20063;-85
2023/09/24 02:20:18;;;;;;;7.68;5.05;;;;;;;;;;4947473;29;20081;-85
2023/09/24 02:22:45;;;;;;;9.07;5.15;;;;;;;;;;4927836;29;20051;-85
2023/09/24 02:25:18;;;;;;;10.57;5.65;;;;;;;;;;4930990;29;20107;-86
2023/09/24 02:27:57;;;;;;;6.78;5.18;;;;;;;;;;4931533;28;20060;-86
2023/09/24 02:30:27;;;;;;;9.88;5.65;;;;;;;;;;4927335;29;20055;-86
2023/09/24 02:32:58;;;;;;;7.80;5.65;;;;;;;;;;4927004;29;20083;-85
2023/09/24 02:35:29;;;;;;;7.35;5.60;;;;;;;;;;4926050;29;20114;-86
2023/09/24 02:37:58;;;;;;;11.40;5.82;;;;;;;;;;4925014;29;20057;-86
2023/09/24 02:40:28;;;;;;;9.32;5.45;;;;;;;;;;4927117;29;20459;-86
2023/09/24 02:42:57;;;;;;;7.80;5.75;;;;;;;;;;4929859;29;20115;-86
2023/09/24 02:45:26;;;;;;;10.95;6.55;;;;;;;;;;4928315;29;20197;-86
2023/09/24 02:47:56;;;;;;;10.35;6.60;;;;;;;;;;4944903;29;20055;-86
2023/09/24 02:50:28;;;;;;;11.45;7.07;;;;;;;;;;4927848;29;20087;-87
2023/09/24 02:53:18;;;;;;;11.70;6.18;;;;;;;;;;4927078;29;20090;-86
2023/09/24 02:55:46;;;;;;;9.25;6.45;;;;;;;;;;4943623;29;20387;-87
2023/09/24 02:58:17;;;;;;;14.13;8.30;;;;;;;;;;4920372;29;20048;-87
2023/09/24 03:00:45;;;;;;;18.48;9.82;;;;;;;;;;4927625;29;20090;-85
2023/09/24 03:03:15;;;;;;;18.23;10.95;;;;;;;;;;4946632;29;20051;-85
2023/09/24 03:05:43;;;;;;;18.25;10.13;;;;;;;;;;4928283;29;20055;-86
2023/09/24 03:08:15;;;;;;;18.63;10.20;;;;;;;;;;4927811;29;20086;-85
2023/09/24 03:10:46;;;;;;;17.50;9.38;;;;;;;;;;4944054;29;20055;-85
2023/09/24 03:13:13;;;;;;;19.58;10.52;;;;;;;;;;4943719;28;20048;-86
2023/09/24 03:15:59;;;;;;;15.07;8.70;;;;;;;;;;4926801;29;20079;-85
2023/09/24 03:18:26;;;;;;;15.73;9.65;;;;;;;;;;4928212;29;20220;-85
2023/09/24 03:20:55;;;;;;;13.30;8.90;;;;;;;;;;4926275;29;20050;-85
2023/09/24 03:23:22;;;;;;;17.63;9.00;;;;;;;;;;4926803;29;20078;-86
2023/09/24 03:25:56;;;;;;;15.55;9.23;;;;;;;;;;4927186;29;20055;-86
2023/09/24 03:28:26;;;;;;;14.45;9.52;;;;;;;;;;4927088;29;20043;-86
2023/09/24 03:30:59;;;;;;;15.00;10.00;;;;;;;;;;4926057;29;20115;-86
2023/09/24 03:33:29;;;;;;;16.55;9.27;;;;;;;;;;4943285;29;20138;-85
2023/09/24 03:35:57;;;;;;;14.52;9.18;;;;;;;;;;4946970;29;20214;-86
2023/09/24 03:38:24;;;;;;;16.60;10.10;;;;;;;;;;4928431;29;20063;-86
2023/09/24 03:40:51;;;;;;;15.10;9.80;;;;;;;;;;4924014;29;20059;-86
2023/09/24 03:43:19;;;;;;;12.27;8.50;;;;;;;;;;4924517;29;20064;-86
2023/09/24 03:45:47;;;;;;;12.57;7.88;;;;;;;;;;4926568;29;20070;-86
2023/09/24 03:48:15;;;;;;;12.30;8.95;;;;;;;;;;4947186;29;20055;-85
2023/09/24 03:50:42;;;;;;;11.95;8.18;;;;;;;;;;4926823;29;20052;-85
2023/09/24 03:53:10;;;;;;;13.77;8.68;;;;;;;;;;4926669;29;20052;-85
2023/09/24 03:55:37;;;;;;;13.18;9.02;;;;;;;;;;4926775;29;20056;-85
2023/09/24 03:58:18;;;;;;;12.63;8.45;;;;;;;;;;4927411;29;20051;-85
2023/09/24 04:00:50;;;;;;;12.30;8.35;;;;;;;;;;4941965;29;20052;-86
2023/09/24 04:03:18;;;;;;;14.23;7.82;;;;;;;;;;4940987;29;20116;-85
2023/09/24 04:05:48;;;;;;;22.35;8.50;;;;;;;;;;4924612;29;20056;-86
2023/09/24 04:08:23;;;;;;;11.88;7.95;;;;;;;;;;4924610;29;20052;-87
2023/09/24 04:10:53;;;;;;;13.15;6.65;;;;;;;;;;4927385;29;20062;-86
2023/09/24 04:13:23;;;;;;;13.23;7.07;;;;;;;;;;4926024;29;20415;-86
2023/09/24 04:15:52;;;;;;;0.10;0.10;;;;;;;;;;4925187;29;20148;-86
2023/09/24 04:18:23;;;;;;;12.23;7.32;;;;;;;;;;4926229;29;20067;-86
2023/09/24 04:20:52;;;;;;;13.05;7.30;;;;;;;;;;4941868;29;20043;-85
2023/09/24 04:23:19;;;;;;;15.50;6.78;;;;;;;;;;4926328;29;20048;-85
2023/09/24 04:26:19;;;;;;;9.65;6.63;;;;;;;;;;4928406;29;20060;-85
2023/09/24 04:29:06;;;;;;;14.50;7.00;;;;;;;;;;4933627;29;20102;-86
2023/09/24 04:31:36;;;;;;;13.60;7.47;;;;;;;;;;4926749;29;20213;-86
2023/09/24 04:34:04;;;;;;;9.85;6.70;;;;;;;;;;4928610;29;20070;-86
2023/09/24 04:36:31;;;;;;;25.60;7.85;;;;;;;;;;4927431;29;20134;-86
2023/09/24 04:39:12;;;;;;;11.82;6.93;;;;;;;;;;4930336;29;20047;-86
2023/09/24 04:41:42;;;;;;;9.82;7.20;;;;;;;;;;4934662;29;20170;-86
2023/09/24 04:44:11;;;;;;;9.27;7.07;;;;;;;;;;4931422;29;20051;-86
2023/09/24 04:46:38;;;;;;;11.05;7.85;;;;;;;;;;4929414;29;20055;-86
2023/09/24 04:49:05;;;;;;;24.30;7.10;;;;;;;;;;4929006;29;20052;-86
2023/09/24 04:51:34;;;;;;;13.90;7.88;;;;;;;;;;4930288;29;20072;-86
2023/09/24 04:54:02;;;;;;;19.42;7.03;;;;;;;;;;4930302;29;20075;-86
2023/09/24 04:56:29;;;;;;;10.05;7.50;;;;;;;;;;4930454;29;20404;-86
2023/09/24 04:58:57;;;;;;;19.90;8.98;;;;;;;;;;4948708;28;20103;-86
2023/09/24 05:01:25;;;;;;;22.75;9.15;;;;;;;;;;4927438;29;20051;-85
2023/09/24 05:03:53;;;;;;;18.88;8.48;;;;;;;;;;4928899;29;20078;-85
2023/09/24 05:06:21;;;;;;;12.18;7.63;;;;;;;;;;4928232;29;20051;-86
2023/09/24 05:08:49;;;;;;;19.50;7.80;;;;;;;;;;4934315;29;20048;-86
2023/09/24 05:11:16;;;;;;;20.67;7.40;;;;;;;;;;4945248;29;20071;-86
2023/09/24 05:13:44;;;;;;;27.92;8.95;;;;;;;;;;4928030;29;20075;-86
2023/09/24 05:16:16;;;;;;;15.75;8.55;;;;;;;;;;4928907;29;20052;-86
2023/09/24 05:18:44;;;;;;;13.85;8.80;;;;;;;;;;4929827;29;20079;-85
2023/09/24 05:21:17;;;;;;;20.67;8.30;;;;;;;;;;4927766;29;20052;-85
2023/09/24 05:23:45;;;;;;;16.05;8.52;;;;;;;;;;4929216;29;20126;-85
2023/09/24 05:26:13;;;;;;;27.80;9.75;;;;;;;;;;4945935;29;20062;-85
2023/09/24 05:28:41;;;;;;;19.13;8.07;;;;;;;;;;4945459;29;20450;-85
2023/09/24 05:31:08;;;;;;;21.38;8.52;;;;;;;;;;4945513;29;20115;-85
2023/09/24 05:33:36;;;;;;;16.13;8.50;;;;;;;;;;4945267;28;20062;-85
2023/09/24 05:36:04;;;;;;;17.95;8.55;;;;;;;;;;4930352;29;20071;-86
2023/09/24 05:38:39;;;;;;;30.13;9.13;;;;;;;;;;4937648;29;20432;-86
2023/09/24 05:41:08;;;;;;;11.15;8.48;;;;;;;;;;4939044;29;20054;-85
2023/09/24 05:43:35;;;;;;;15.07;8.25;;;;;;;;;;4938424;29;20052;-85
2023/09/24 05:46:04;;;;;;;13.05;8.57;;;;;;;;;;4937779;28;20036;-86
2023/09/24 05:48:32;;;;;;;14.98;7.30;;;;;;;;;;4936498;28;20103;-85
2023/09/24 05:51:04;;;;;;;20.85;10.13;;;;;;;;;;4937216;29;20066;-85
2023/09/24 05:53:32;;;;;;;38.95;10.40;;;;;;;;;;4937571;28;20051;-85
2023/09/24 05:56:03;;;;;;;49.45;10.13;;;;;;;;;;4938194;29;20051;-86
2023/09/24 05:58:30;;;;;;;19.13;8.70;;;;;;;;;;4937651;29;20636;-85
2023/09/24 06:01:01;;;;;;;18.35;10.05;;;;;;;;;;4935739;29;20058;-85
2023/09/24 06:03:31;;;;;;;37.85;8.70;;;;;;;;;;4927582;29;20051;-86
2023/09/24 06:05:59;;;;;;;13.63;8.75;;;;;;;;;;4926494;29;20056;-85
2023/09/24 06:08:27;;;;;;;13.63;8.00;;;;;;;;;;4943584;29;20117;-86
2023/09/24 06:10:59;;;;;;;14.13;8.30;;;;;;;;;;4927089;29;20415;-85
2023/09/24 06:13:30;;;;;;;18.98;8.77;;;;;;;;;;4928330;29;20048;-86
2023/09/24 06:16:04;;;;;;;25.83;9.60;;;;;;;;;;4930468;29;20192;-85
2023/09/24 06:18:33;;;;;;;21.83;9.10;;;;;;;;;;4932610;29;20067;-85
2023/09/24 06:21:04;;;;;;;30.67;9.07;;;;;;;;;;4944067;29;20075;-86
2023/09/24 06:23:40;;;;;;;18.00;10.40;;;;;;;;;;4926041;29;20368;-85
2023/09/24 06:26:11;;;;;;;15.00;9.52;;;;;;;;;;4926696;29;20071;-85
2023/09/24 06:28:38;;;;;;;13.70;9.25;;;;;;;;;;4928931;29;20075;-85
2023/09/24 06:31:24;;;;;;;14.77;9.02;;;;;;;;;;4955006;28;20051;-85
2023/09/24 06:34:09;;;;;;;31.30;9.45;;;;;;;;;;4956224;29;20075;-86
2023/09/24 06:36:57;;;;;;;13.98;8.35;;;;;;;;;;4954544;28;20153;-86
2023/09/24 06:39:26;;;;;;;;;;;;;;;;;;4927893;29;20376;-85
2023/09/24 06:42:00;;;;;;;12.10;8.05;;;;;;;;;;4933577;29;19930;-85
2023/09/24 06:44:27;;;;;;;17.15;8.88;;;;;;;;;;4937357;28;20059;-85
2023/09/24 06:46:59;;;;;;;14.05;8.80;;;;;;;;;;4937601;28;20039;-86
2023/09/24 06:49:28;;;;;;;18.95;8.52;;;;;;;;;;4936645;28;20044;-87
2023/09/24 06:52:04;;;;;;;13.95;8.88;;;;;;;;;;4936961;28;20134;-85
2023/09/24 06:54:32;;;;;;;14.82;9.73;;;;;;;;;;4951354;28;20068;-87
2023/09/24 06:56:59;;;;;;;15.52;9.65;;;;;;;;;;4928430;29;20067;-85
2023/09/24 06:59:27;;;;;;;14.77;9.23;;;;;;;;;;4926778;29;20095;-85
2023/09/24 07:01:59;;;;;;;27.80;9.55;;;;;;;;;;4925103;29;20052;-85
2023/09/24 07:04:27;;;;;;;15.82;10.35;;;;;;;;;;4926328;29;20044;-85
2023/09/24 07:06:57;;;;;;;19.75;9.98;;;;;;;;;;4944599;28;20035;-85
2023/09/24 07:09:31;;;;;;;21.80;9.65;;;;;;;;;;4928371;29;20248;-85
2023/09/24 07:12:01;;;;;;;17.65;10.57;;;;;;;;;;4926100;29;20063;-86
2023/09/24 07:14:32;;;;;;;23.33;10.82;;;;;;;;;;4944998;29;20051;-87
2023/09/24 07:17:04;;;;;;;16.05;9.63;;;;;;;;;;4932339;29;20106;-85
2023/09/24 07:19:32;;;;;;;18.27;10.25;;;;;;;;;;4925864;29;20067;-85
2023/09/24 07:21:59;;;;;;;19.25;9.70;;;;;;;;;;4925583;29;20553;-85
2023/09/24 07:24:31;;;;;;;15.90;8.93;;;;;;;;;;4925543;29;20070;-86
2023/09/24 07:27:02;;;;;;;19.30;10.40;;;;;;;;;;4926263;29;20090;-86
2023/09/24 07:29:33;;;;;;;20.73;11.02;;;;;;;;;;4943954;29;20054;-86
2023/09/24 07:32:06;;;;;;;20.50;11.70;;;;;;;;;;4940086;29;20047;-86
2023/09/24 07:34:35;;;;;;;20.25;12.00;;;;;;;;;;4925344;29;20079;-86
2023/09/24 07:37:08;;;;;;;27.00;12.82;;;;;;;;;;4941427;29;20054;-86
2023/09/24 07:39:41;;;;;;;26.60;13.38;;;;;;;;;;4940197;29;20146;-86
2023/09/24 07:42:09;;;;;;;21.63;12.25;;;;;;;;;;4938181;29;20052;-86
2023/09/24 07:44:36;;;;;;;20.70;10.90;;;;;;;;;;4936158;29;20116;-85
2023/09/24 07:47:08;;;;;;;22.35;11.73;;;;;;;;;;4919544;29;20082;-86
2023/09/24 07:49:42;;;;;;;21.48;11.05;;;;;;;;;;4930656;29;20059;-85
2023/09/24 07:52:09;;;;;;;23.08;12.05;;;;;;;;;;4922023;29;20047;-85
2023/09/24 07:54:39;;;;;;;20.50;11.95;;;;;;;;;;4919030;29;20044;-85
2023/09/24 07:57:06;;;;;;;21.63;11.52;;;;;;;;;;4933804;29;20067;-85
2023/09/24 07:59:33;;;;;;;25.80;11.60;;;;;;;;;;4917375;29;20047;-85
2023/09/24 08:02:01;;;;;;;18.98;10.88;;;;;;;;;;4917155;29;20095;-85
2023/09/24 08:04:30;;;;;;;20.83;11.52;;;;;;;;;;4916765;29;20051;-86
2023/09/24 08:06:58;;;;;;;20.92;11.15;;;;;;;;;;4917800;29;20047;-86
2023/09/24 08:09:29;;;;;;;19.58;10.90;;;;;;;;;;4933882;29;20531;-86
2023/09/24 08:11:57;;;;;;;22.20;11.75;;;;;;;;;;4936756;29;20048;-85
2023/09/24 08:14:24;;;;;;;18.77;11.15;;;;;;;;;;4923164;29;20071;-86
2023/09/24 08:16:55;;;;;;;18.40;10.90;;;;;;;;;;4924900;29;20051;-86
2023/09/24 08:19:30;;;;;;;18.42;10.75;;;;;;;;;;4922965;29;20071;-86
2023/09/24 08:22:02;;;;;;;16.58;10.27;;;;;;;;;;5008471;23;21219;-86
2023/09/24 08:24:46;;;;;;;21.83;12.18;;;;;;;;;;4913833;29;20048;-86
2023/09/24 08:27:27;;;;;;;17.80;10.52;;;;;;;;;;4918085;29;20064;-86
2023/09/24 08:30:03;;;;;;;16.05;9.60;;;;;;;;;;4926483;29;20268;-86
2023/09/24 08:32:54;;;;;;;15.10;10.35;;;;;;;;;;4921964;29;20048;-86
2023/09/24 08:35:29;;;;;;;18.08;10.75;;;;;;;;;;4901540;29;20052;-86
2023/09/24 08:37:57;;;;;;;18.20;10.27;;;;;;;;;;4901623;29;20055;-86
2023/09/24 08:40:30;;;;;;;17.15;9.73;;;;;;;;;;4917774;29;20083;-86
2023/09/24 08:43:16;;;;;;;16.08;10.20;;;;;;;;;;4904268;29;20048;-85
2023/09/24 08:45:44;;;;;;;17.65;10.82;;;;;;;;;;4904253;29;20048;-86
2023/09/24 08:48:14;;;;;;;16.13;10.40;;;;;;;;;;4905092;29;20068;-86
2023/09/24 08:50:53;;;;;;;17.05;10.30;;;;;;;;;;4909015;29;20052;-86
2023/09/24 08:53:21;;;;;;;16.58;10.63;;;;;;;;;;4906870;29;20066;-86
2023/09/24 08:55:54;;;;;;;20.40;11.13;;;;;;;;;;4925084;29;20062;-86
2023/09/24 08:58:22;;;;;;;18.67;11.73;;;;;;;;;;4909958;29;20079;-87
2023/09/24 09:01:13;;;;;;;18.70;11.35;;;;;;;;;;4925406;29;20500;-87
2023/09/24 09:03:45;;;;;;;16.33;10.10;;;;;;;;;;4923922;29;20115;-86
2023/09/24 09:06:42;;;;;;;23.75;11.77;;;;;;;;;;4904173;29;20055;-86
2023/09/24 09:09:23;;;;;;;22.27;12.18;;;;;;;;;;4899447;29;20056;-85
2023/09/24 09:11:52;;;;;;;17.45;11.57;;;;;;;;;;4908505;29;20122;-86
2023/09/24 09:14:36;;;;;;;15.90;10.93;;;;;;;;;;4902510;29;20143;-86
2023/09/24 09:17:03;;;;;;;17.20;10.15;;;;;;;;;;4901909;29;20447;-86
2023/09/24 09:19:55;;;;;;;18.45;9.27;;;;;;;;;;4920115;29;20492;-86
2023/09/24 09:22:27;;;;;;;14.88;8.32;;;;;;;;;;4901359;29;20052;-86
2023/09/24 09:25:21;;;;;;;14.70;7.50;;;;;;;;;;4904848;29;20136;-87
2023/09/24 09:30:51;;;;;;;14.02;8.52;;;;;;;;;;5353228;23;20147;-87
2023/09/24 09:33:34;;;;;;;15.20;8.15;;;;;;;;;;4924963;29;20254;-87
2023/09/24 09:36:19;;;;;;;14.15;8.00;;;;;;;;;;4928192;29;20047;-86
2023/09/24 09:38:48;;;;;;;17.77;8.85;;;;;;;;;;4926990;29;20083;-88
2023/09/24 09:41:20;;;;;;;17.05;8.98;;;;;;;;;;4926983;29;20111;-87
2023/09/24 09:43:52;;;;;;;11.57;7.85;;;;;;;;;;4932547;28;20071;-86
2023/09/24 09:46:51;;;;;;;10.60;6.70;;;;;;;;;;4948202;29;20056;-87
2023/09/24 09:49:33;;;;;;;11.30;6.95;;;;;;;;;;4939728;29;20131;-86
2023/09/24 09:52:02;;;;;;;10.35;6.10;;;;;;;;;;4921723;29;20263;-87
2023/09/24 09:54:38;;;;;;;9.30;5.68;;;;;;;;;;4921385;29;20067;-87
2023/09/24 09:57:08;;;;;;;9.52;4.80;;;;;;;;;;4923292;29;20413;-87
2023/09/24 09:59:36;;;;;;;10.73;5.03;;;;;;;;;;4924673;29;20047;-86
2023/09/24 10:02:05;;;;;;;10.73;4.40;;;;;;;;;;4923349;29;20416;-87
2023/09/24 10:04:59;;;;;;;8.73;4.43;;;;;;;;;;5122653;27;20673;-86
2023/09/24 10:07:27;;;;;;;6.47;3.80;;;;;;;;;;5090559;28;20056;-87
2023/09/24 10:09:57;;;;;;;7.30;3.85;;;;;;;;;;5088465;28;20108;-87
2023/09/24 10:12:39;;;;;;;6.40;3.65;;;;;;;;;;5088444;28;20140;-87
2023/09/24 10:15:27;;;;;;;11.45;3.80;;;;;;;;;;5092156;28;20090;-87
2023/09/24 10:21:44;;;;;;;6.93;3.40;;;;;;;;;;5094442;28;20469;-86
2023/09/24 10:24:13;;;;;;;8.30;3.70;;;;;;;;;;5085037;28;20124;-87
2023/09/24 10:27:06;;;;;;;8.50;2.92;;;;;;;;;;5089189;28;20051;-87
2023/09/24 10:32:41;;;;;;;5.82;2.35;;;;;;;;;;5534356;22;20051;-88
2023/09/24 10:35:17;;;;;;;5.78;1.65;;;;;;;;;;5050960;28;20177;-87
2023/09/24 10:38:06;;;;;;;3.63;1.67;;;;;;;;;;5065526;28;20055;-87
2023/09/24 10:41:03;;;;;;;6.07;1.85;;;;;;;;;;5064375;28;20109;-87
2023/09/24 10:43:36;;;;;;;7.15;2.03;;;;;;;;;;5061457;28;20110;-87
2023/09/24 10:46:39;;;;;;;7.03;2.03;;;;;;;;;;5059949;28;20045;-86
2023/09/24 10:49:08;;;;;;;4.03;1.42;;;;;;;;;;5036138;28;20044;-88
2023/09/24 10:51:37;;;;;;;3.25;1.95;;;;;;;;;;5049403;28;20167;-87
2023/09/24 10:54:20;;;;;;;5.63;2.33;;;;;;;;;;5047697;28;20080;-87
2023/09/24 10:56:48;;;;;;;7.90;2.00;;;;;;;;;;5066387;28;20112;-87
2023/09/24 10:59:30;;;;;;;6.13;2.05;;;;;;;;;;5050058;28;20316;-87
2023/09/24 11:01:57;;;;;;;3.60;1.60;;;;;;;;;;5047788;28;20135;-87
2023/09/24 11:04:28;;;;;;;3.15;1.05;;;;;;;;;;5048711;28;20302;-86
2023/09/24 11:07:07;;;;;;;3.00;1.38;;;;;;;;;;5048010;28;20053;-87
2023/09/24 11:09:37;;;;;;;3.88;1.52;;;;;;;;;;5048294;28;20045;-86
2023/09/24 11:12:10;;;;;;;4.93;1.50;;;;;;;;;;5052557;28;20148;-86
2023/09/24 11:14:42;;;;;;;4.15;1.75;;;;;;;;;;5046911;28;20114;-86
2023/09/24 11:17:12;;;;;;;2.72;1.42;;;;;;;;;;5037601;28;20052;-87
2023/09/24 11:19:49;;;;;;;3.40;1.45;;;;;;;;;;5039064;28;20106;-87
2023/09/24 11:22:56;;;;;;;2.15;1.00;;;;;;;;;;5065485;28;20546;-86
2023/09/24 11:25:48;;;;;;;4.03;1.55;;;;;;;;;;5056454;28;20048;-87
2023/09/24 11:34:01;;;;;;;6.25;1.20;;;;;;;;;;5131091;22;20065;-86
2023/09/24 11:36:55;;;;;;;3.88;0.88;;;;;;;;;;5072408;28;20324;-87
2023/09/24 11:39:29;;;;;;;2.55;1.13;;;;;;;;;;5078016;28;20040;-87
2023/09/24 11:42:00;;;;;;;4.13;1.25;;;;;;;;;;5078874;28;20048;-87
2023/09/24 11:44:44;;;;;;;4.47;0.87;;;;;;;;;;5077301;28;20206;-87
2023/09/24 11:47:16;;;;;;;5.53;1.33;;;;;;;;;;5096212;28;20047;-87
2023/09/24 11:49:44;;;;;;;4.55;1.50;;;;;;;;;;5080849;28;20155;-88
2023/09/24 11:52:15;;;;;;;5.05;1.02;;;;;;;;;;5081202;28;20109;-88
2023/09/24 11:54:42;;;;;;;5.75;1.33;;;;;;;;;;5079229;28;20059;-88
2023/09/24 11:57:14;;;;;;;4.18;1.40;;;;;;;;;;5075476;28;20076;-87
2023/09/24 11:59:52;;;;;;;2.25;1.13;;;;;;;;;;5080972;28;20054;-87
2023/09/24 12:02:20;;;;;;;3.58;1.20;;;;;;;;;;5087644;28;20040;-87
2023/09/24 12:04:50;;;;;;;3.13;1.23;;;;;;;;;;5079974;28;20090;-87
2023/09/24 12:07:23;;;;;;;5.18;1.40;;;;;;;;;;5082848;28;20133;-88
2023/09/24 12:10:01;;;;;;;2.28;0.90;;;;;;;;;;5082605;28;20090;-87
2023/09/24 12:12:31;;;;;;;4.03;1.42;;;;;;;;;;5079886;28;20087;-87
2023/09/24 12:15:02;;;;;;;3.30;1.10;;;;;;;;;;5099700;28;20046;-87
2023/09/24 12:17:37;;;;;;;3.33;1.65;;;;;;;;;;5084186;28;20048;-88
2023/09/24 12:20:11;;;;;;;3.47;1.40;;;;;;;;;;5080630;28;20163;-88
2023/09/24 12:22:51;;;;;;;3.45;0.90;;;;;;;;;;5080872;28;20032;-88
2023/09/24 12:25:36;;;;;;;5.55;1.35;;;;;;;;;;5084827;28;20044;-87
2023/09/24 12:28:10;;;;;;;6.32;1.50;;;;;;;;;;5079852;28;20055;-87
2023/09/24 12:30:41;;;;;;;3.63;1.42;;;;;;;;;;5094761;28;20032;-87
2023/09/24 12:33:13;;;;;;;2.95;1.50;;;;;;;;;;5077936;28;20235;-87
2023/09/24 12:35:53;;;;;;;6.25;1.27;;;;;;;;;;5076639;28;20078;-87
2023/09/24 12:38:23;;;;;;;3.00;1.40;;;;;;;;;;5077696;28;20048;-90
2023/09/24 12:40:54;;;;;;;2.55;1.30;;;;;;;;;;5096653;28;20052;-90
2023/09/24 12:43:21;;;;;;;3.13;1.23;;;;;;;;;;5077449;28;20115;-90
2023/09/24 12:45:48;;;;;;;5.00;1.50;;;;;;;;;;5082010;28;20044;-91
2023/09/24 12:48:19;;;;;;;6.78;1.60;;;;;;;;;;5079110;28;20040;-90
2023/09/24 12:51:02;;;;;;;8.10;1.20;;;;;;;;;;5078057;28;20102;-90
2023/09/24 12:53:30;;;;;;;4.20;1.30;;;;;;;;;;5079119;28;20047;-90
2023/09/24 12:55:59;;;;;;;2.85;0.93;;;;;;;;;;5093938;28;20062;-90
2023/09/24 12:58:29;;;;;;;4.70;0.95;;;;;;;;;;5093431;28;20052;-91
2023/09/24 13:00:56;;;;;;;6.80;1.40;;;;;;;;;;5098201;27;20058;-91
2023/09/24 13:03:23;;;;;;;2.63;1.08;;;;;;;;;;5102788;28;20091;-91
2023/09/24 13:05:51;;;;;;;5.00;1.42;;;;;;;;;;5080231;28;20059;-89
2023/09/24 13:10:54;;;;;;;4.07;1.13;;;;;;;;;;5436807;22;20052;-90
2023/09/24 13:13:21;;;;;;;3.67;0.90;;;;;;;;;;5078746;28;20048;-91
2023/09/24 13:16:23;;;;;;;3.60;1.30;;;;;;;;;;5102176;27;20096;-90
2023/09/24 13:19:03;;;;;;;4.95;1.40;;;;;;;;;;5077922;28;20048;-90
2023/09/24 13:21:31;;;;;;;2.60;1.10;;;;;;;;;;5077216;28;20115;-89
2023/09/24 13:24:02;;;;;;;5.45;1.52;;;;;;;;;;5104131;27;20056;-89
2023/09/24 13:26:37;;;;;;;4.30;1.48;;;;;;;;;;5088139;27;20283;-90
2023/09/24 13:29:07;;;;;;;5.05;1.27;;;;;;;;;;5087867;27;20132;-90
2023/09/24 13:31:34;;;;;;;4.03;1.30;;;;;;;;;;5086293;28;20043;-89
2023/09/24 13:34:04;;;;;;;3.20;1.23;;;;;;;;;;5105873;27;20048;-90
2023/09/24 13:36:35;;;;;;;5.32;1.60;;;;;;;;;;5080736;28;20094;-91
2023/09/24 13:39:04;;;;;;;4.70;1.15;;;;;;;;;;5099422;28;20056;-89
2023/09/24 13:41:35;;;;;;;4.57;1.25;;;;;;;;;;5081216;28;20253;-90
2023/09/24 13:44:03;;;;;;;3.65;1.30;;;;;;;;;;5098727;28;20103;-90
2023/09/24 13:46:30;;;;;;;5.32;1.50;;;;;;;;;;5080892;28;20108;-90
2023/09/24 13:48:59;;;;;;;6.57;1.83;;;;;;;;;;5078311;28;20185;-90
2023/09/24 13:54:20;;;;;;;4.32;1.38;;;;;;;;;;5096655;28;20262;-90
2023/09/24 13:56:50;;;;;;;3.15;1.30;;;;;;;;;;5079073;28;20048;-91
2023/09/24 13:59:23;;;;;;;3.30;1.45;;;;;;;;;;5081204;27;20059;-90
2023/09/24 14:02:04;;;;;;;4.03;1.10;;;;;;;;;;5080935;27;20098;-90
2023/09/24 14:04:35;;;;;;;2.60;1.27;;;;;;;;;;5081514;27;20217;-89
2023/09/24 14:07:03;;;;;;;5.00;1.73;;;;;;;;;;5078983;28;20078;-89
2023/09/24 14:12:30;;;;;;;7.70;1.55;;;;;;;;;;5022657;28;20183;-90
2023/09/24 14:14:57;;;;;;;4.10;1.13;;;;;;;;;;5013212;28;20054;-91
2023/09/24 14:17:27;;;;;;;7.55;1.30;;;;;;;;;;5067729;28;20062;-90
2023/09/24 14:19:57;;;;;;;4.45;1.45;;;;;;;;;;5092949;28;20048;-91
2023/09/24 14:22:31;;;;;;;2.72;1.27;;;;;;;;;;5091560;28;20070;-91
2023/09/24 14:24:58;;;;;;;6.63;1.30;;;;;;;;;;5093764;28;20070;-90
2023/09/24 14:27:28;;;;;;;6.95;1.60;;;;;;;;;;5065608;28;20049;-90
2023/09/24 14:29:56;;;;;;;8.93;1.30;;;;;;;;;;5075647;28;20067;-91
2023/09/24 14:32:23;;;;;;;5.45;1.42;;;;;;;;;;5061062;28;20079;-90
2023/09/24 14:34:51;;;;;;;3.97;1.20;;;;;;;;;;5057671;28;20055;-92
2023/09/24 14:37:27;;;;;;;2.42;1.40;;;;;;;;;;5054986;28;20052;-91
2023/09/24 14:39:56;;;;;;;5.65;1.15;;;;;;;;;;5056156;28;20361;-92
2023/09/24 14:42:24;;;;;;;5.63;1.60;;;;;;;;;;5074278;28;20051;-92
2023/09/24 14:44:51;;;;;;;4.80;1.10;;;;;;;;;;5053362;28;20049;-92
2023/09/24 14:47:23;;;;;;;4.00;1.30;;;;;;;;;;5076116;28;20139;-91
2023/09/24 14:49:59;;;;;;;1.83;1.02;;;;;;;;;;5072916;28;20234;-90
2023/09/24 14:52:26;;;;;;;3.75;1.17;;;;;;;;;;5057564;28;20059;-91
2023/09/24 14:54:56;;;;;;;5.22;1.65;;;;;;;;;;5059620;28;20354;-90
2023/09/24 14:57:27;;;;;;;4.15;1.10;;;;;;;;;;5075132;28;20052;-90
2023/09/24 15:00:05;;;;;;;3.13;1.10;;;;;;;;;;5058823;28;20045;-90
2023/09/24 15:02:39;;;;;;;5.28;1.38;;;;;;;;;;5076236;28;20111;-89
2023/09/24 15:05:15;;;;;;;3.83;1.50;;;;;;;;;;5060597;28;20048;-90
2023/09/24 15:07:44;;;;;;;3.08;1.08;;;;;;;;;;5075741;28;20054;-90
2023/09/24 15:13:41;;;;;;;6.15;1.45;;;;;;;;;;5077623;28;20059;-91
2023/09/24 15:16:10;;;;;;;4.20;1.10;;;;;;;;;;5062372;28;20041;-91
2023/09/24 15:18:44;;;;;;;2.40;1.10;;;;;;;;;;5059813;28;20063;-89
2023/09/24 15:21:17;;;;;;;3.33;1.25;;;;;;;;;;5076728;28;20063;-90
2023/09/24 15:23:49;;;;;;;5.55;1.38;;;;;;;;;;5060767;28;20048;-91
2023/09/24 15:36:36;;;;;;;4.85;1.40;;;;;;;;;;5097301;28;20059;-89
2023/09/24 15:39:30;;;;;;;5.95;1.25;;;;;;;;;;5096619;28;20044;-91
2023/09/24 15:55:45;;;;;;;3.33;1.50;;;;;;;;;;5093487;28;20075;-92
2023/09/24 15:58:36;;;;;;;4.22;1.50;;;;;;;;;;5095923;28;20074;-92